Time;durP1;ratioP1;P1;durP2;ratioP2;P2;SDS_P1;SDS_P2;PMS_P1;PMS_P2;Temp;Humidity;BMP_temperature;BMP_pressure;BME280_temperature;BME280_humidity;BME280_pressure;Samples;Min_cycle;Max_cycle;Signal;HPM_P1;HPM_P2
2023/06/16 00:01:08;;;;;;;2.97;1.80;;;25.60;37.30;;;;;;5054826;28;20378;-74
2023/06/16 00:03:34;;;;;;;1.90;1.50;;;25.50;37.30;;;;;;5054715;28;20033;-73
2023/06/16 00:06:03;;;;;;;1.60;1.50;;;25.60;37.40;;;;;;5053399;28;20041;-77
2023/06/16 00:08:31;;;;;;;3.10;1.70;;;25.50;37.40;;;;;;5054886;28;20043;-74
2023/06/16 00:10:57;;;;;;;2.30;1.75;;;25.40;37.30;;;;;;5037194;28;20041;-73
2023/06/16 00:13:23;;;;;;;2.55;1.80;;;25.40;37.40;;;;;;5053549;28;20032;-73
2023/06/16 00:15:49;;;;;;;1.65;1.50;;;25.40;37.40;;;;;;5054940;28;20033;-72
2023/06/16 00:18:16;;;;;;;2.30;1.70;;;25.40;37.40;;;;;;5054167;28;20041;-72
2023/06/16 00:20:42;;;;;;;2.55;1.90;;;25.30;37.40;;;;;;5054644;28;20469;-73
2023/06/16 00:23:11;;;;;;;2.65;1.95;;;25.30;37.40;;;;;;5053193;28;20033;-73
2023/06/16 00:25:36;;;;;;;4.60;1.75;;;25.20;37.40;;;;;;5054802;28;20155;-73
2023/06/16 00:28:02;;;;;;;1.80;1.50;;;25.20;37.40;;;;;;5054799;28;20124;-73
2023/06/16 00:30:28;;;;;;;2.47;1.80;;;25.20;37.50;;;;;;5054684;28;20033;-72
2023/06/16 00:32:54;;;;;;;2.88;1.90;;;25.20;37.50;;;;;;5054581;28;20116;-73
2023/06/16 00:35:19;;;;;;;2.70;1.73;;;25.10;37.50;;;;;;5054575;28;20405;-73
2023/06/16 00:37:45;;;;;;;2.20;1.60;;;25.10;37.60;;;;;;5036628;28;20037;-74
2023/06/16 00:40:11;;;;;;;2.25;1.67;;;25.00;37.50;;;;;;5053272;28;20112;-73
2023/06/16 00:42:37;;;;;;;2.30;1.70;;;25.00;37.60;;;;;;5053329;28;20053;-72
2023/06/16 00:45:03;;;;;;;2.50;1.90;;;25.00;37.60;;;;;;5052706;28;20033;-74
2023/06/16 00:47:29;;;;;;;1.85;1.60;;;25.00;37.70;;;;;;5036416;28;20036;-73
2023/06/16 00:49:55;;;;;;;1.95;1.65;;;24.90;37.70;;;;;;5052983;28;20045;-73
2023/06/16 00:52:25;;;;;;;2.13;1.65;;;24.90;37.70;;;;;;5053978;28;20037;-73
2023/06/16 00:54:54;;;;;;;2.53;1.90;;;24.80;37.70;;;;;;5052961;28;20044;-72
2023/06/16 00:57:21;;;;;;;2.00;1.67;;;24.80;37.70;;;;;;5053544;28;20552;-73
2023/06/16 00:59:48;;;;;;;3.20;1.80;;;24.80;37.70;;;;;;5036407;28;20175;-74
2023/06/16 01:02:14;;;;;;;2.80;1.95;;;24.80;37.70;;;;;;5052947;28;20480;-72
2023/06/16 01:04:40;;;;;;;2.53;1.77;;;24.70;37.70;;;;;;5052565;28;20048;-73
2023/06/16 01:07:11;;;;;;;2.33;1.77;;;24.70;37.70;;;;;;5036009;28;20083;-73
2023/06/16 01:10:09;;;;;;;2.58;1.80;;;24.60;37.80;;;;;;5052640;28;20525;-73
2023/06/16 01:12:58;;;;;;;3.17;1.60;;;24.60;37.90;;;;;;5052472;28;20043;-73
2023/06/16 01:15:26;;;;;;;2.88;1.50;;;24.60;37.90;;;;;;5036205;28;20029;-72
2023/06/16 01:17:55;;;;;;;2.55;1.70;;;24.50;37.80;;;;;;5052350;28;20032;-73
2023/06/16 01:20:51;;;;;;;2.83;1.83;;;24.50;37.90;;;;;;5053807;28;20380;-74
2023/06/16 01:23:50;;;;;;;2.53;1.90;;;24.50;38.00;;;;;;5053009;28;20470;-74
2023/06/16 01:26:17;;;;;;;2.13;1.60;;;24.40;38.00;;;;;;5052056;28;20032;-72
2023/06/16 01:28:45;;;;;;;1.98;1.75;;;24.40;38.00;;;;;;5053159;28;20096;-72
2023/06/16 01:31:15;;;;;;;1.95;1.70;;;24.40;38.10;;;;;;5051547;28;20113;-73
2023/06/16 01:33:42;;;;;;;2.38;1.70;;;24.30;38.10;;;;;;5053365;28;20116;-73
2023/06/16 01:36:09;;;;;;;2.38;1.75;;;24.30;38.10;;;;;;5051903;28;20033;-73
2023/06/16 01:38:36;;;;;;;1.70;1.52;;;24.20;38.10;;;;;;5052223;28;20044;-73
2023/06/16 01:41:04;;;;;;;3.05;1.75;;;24.20;38.20;;;;;;5052313;28;20033;-73
2023/06/16 01:43:31;;;;;;;2.13;1.92;;;24.20;38.20;;;;;;5019104;28;20040;-73
2023/06/16 01:45:59;;;;;;;2.13;1.80;;;24.10;38.20;;;;;;5035930;28;20033;-73
2023/06/16 01:48:25;;;;;;;2.30;1.73;;;24.10;38.30;;;;;;5053164;28;20045;-73
2023/06/16 01:50:52;;;;;;;2.00;1.75;;;24.10;38.30;;;;;;5053172;28;20049;-73
2023/06/16 01:53:18;;;;;;;2.72;1.80;;;24.10;38.40;;;;;;5051909;28;20082;-72
2023/06/16 01:55:48;;;;;;;2.53;1.60;;;24.00;38.30;;;;;;5052105;28;20505;-74
2023/06/16 01:58:15;;;;;;;2.75;1.80;;;24.00;38.40;;;;;;5051868;28;20116;-74
2023/06/16 02:00:47;;;;;;;2.10;1.73;;;24.00;38.40;;;;;;5051771;28;20036;-73
2023/06/16 02:03:56;;;;;;;2.03;1.77;;;23.90;38.40;;;;;;5052772;28;20025;-73
2023/06/16 02:06:30;;;;;;;2.47;1.90;;;23.90;38.50;;;;;;5051637;28;20079;-73
2023/06/16 02:09:00;;;;;;;3.00;1.70;;;23.90;38.50;;;;;;5053015;28;20078;-73
2023/06/16 02:11:26;;;;;;;2.30;1.67;;;23.80;38.50;;;;;;5051762;28;20448;-75
2023/06/16 02:13:53;;;;;;;2.20;1.80;;;23.80;38.60;;;;;;5035442;28;20116;-76
2023/06/16 02:16:20;;;;;;;2.20;1.85;;;23.80;38.60;;;;;;5035225;28;20029;-73
2023/06/16 02:18:49;;;;;;;2.72;1.75;;;23.70;38.60;;;;;;5052065;28;20033;-73
2023/06/16 02:21:16;;;;;;;2.20;1.88;;;23.70;38.60;;;;;;5035481;28;20029;-72
2023/06/16 02:23:42;;;;;;;3.03;1.70;;;23.70;38.70;;;;;;5051675;28;20067;-73
2023/06/16 02:26:07;;;;;;;2.45;1.90;;;23.60;38.70;;;;;;5052098;28;20036;-73
2023/06/16 02:28:33;;;;;;;2.38;1.70;;;23.60;38.80;;;;;;5051683;28;20450;-73
2023/06/16 02:30:59;;;;;;;2.42;1.77;;;23.60;38.80;;;;;;5052210;28;20506;-73
2023/06/16 02:33:24;;;;;;;2.55;1.85;;;23.50;38.80;;;;;;5052825;28;20056;-73
2023/06/16 02:35:50;;;;;;;2.42;1.73;;;23.50;38.90;;;;;;5035185;28;20139;-72
2023/06/16 02:38:16;;;;;;;2.50;1.85;;;23.50;38.90;;;;;;5034967;28;20037;-72
2023/06/16 02:40:42;;;;;;;2.17;1.77;;;23.50;38.90;;;;;;5035007;28;20059;-72
2023/06/16 02:43:08;;;;;;;2.25;1.77;;;23.40;38.90;;;;;;5038942;28;20474;-75
2023/06/16 02:45:33;;;;;;;2.38;1.75;;;23.40;39.00;;;;;;5055991;28;20032;-74
2023/06/16 02:47:59;;;;;;;3.08;1.70;;;23.30;39.00;;;;;;5055067;28;20033;-72
2023/06/16 02:50:25;;;;;;;2.38;1.92;;;23.30;39.10;;;;;;5055871;28;20037;-72
2023/06/16 02:52:51;;;;;;;2.80;1.88;;;23.30;39.10;;;;;;5055093;28;20116;-73
2023/06/16 02:55:19;;;;;;;2.33;2.00;;;23.30;39.20;;;;;;5055432;28;20021;-73
2023/06/16 02:57:51;;;;;;;2.10;1.67;;;23.20;39.20;;;;;;5039514;28;20029;-73
2023/06/16 03:00:18;;;;;;;3.50;1.98;;;23.20;39.20;;;;;;5056284;28;20044;-73
2023/06/16 03:03:05;;;;;;;2.00;1.80;;;23.20;39.30;;;;;;5051394;28;20398;-73
2023/06/16 03:05:31;;;;;;;1.85;1.67;;;23.20;39.30;;;;;;5038338;28;20037;-72
2023/06/16 03:07:57;;;;;;;3.28;1.83;;;23.10;39.20;;;;;;5039179;28;20037;-74
2023/06/16 03:10:24;;;;;;;2.63;1.80;;;23.10;39.30;;;;;;5022479;28;20474;-73
2023/06/16 03:13:06;;;;;;;2.90;1.90;;;23.00;39.30;;;;;;5054780;28;20071;-73
2023/06/16 03:15:32;;;;;;;2.58;1.85;;;23.00;39.40;;;;;;5054838;28;20037;-73
2023/06/16 03:18:00;;;;;;;2.60;1.70;;;23.00;39.40;;;;;;5054772;28;20033;-74
2023/06/16 03:20:26;;;;;;;2.22;1.80;;;23.00;39.50;;;;;;5037920;28;20044;-73
2023/06/16 03:22:58;;;;;;;3.20;1.98;;;22.90;39.50;;;;;;5039253;28;20111;-73
2023/06/16 03:25:25;;;;;;;3.03;2.10;;;22.90;39.60;;;;;;5054836;28;20112;-73
2023/06/16 03:27:50;;;;;;;2.65;1.90;;;22.90;39.60;;;;;;5054723;28;20129;-73
2023/06/16 03:30:21;;;;;;;2.40;2.05;;;22.90;39.70;;;;;;5054740;28;20047;-74
2023/06/16 03:32:57;;;;;;;2.58;1.98;;;22.80;39.70;;;;;;5054732;28;20093;-76
2023/06/16 03:35:23;;;;;;;2.70;1.90;;;22.80;39.70;;;;;;5055202;28;20029;-73
2023/06/16 03:37:51;;;;;;;2.03;1.70;;;22.80;39.80;;;;;;5054789;28;20056;-73
2023/06/16 03:40:19;;;;;;;2.80;1.95;;;22.70;39.80;;;;;;5038123;28;20055;-76
2023/06/16 03:42:45;;;;;;;2.38;1.63;;;22.70;39.80;;;;;;5054425;28;20075;-73
2023/06/16 03:45:11;;;;;;;1.90;1.67;;;22.70;39.90;;;;;;5055203;28;20116;-73
2023/06/16 03:47:37;;;;;;;2.53;1.85;;;22.60;40.00;;;;;;5038193;28;20532;-74
2023/06/16 03:50:03;;;;;;;2.60;1.98;;;22.60;40.00;;;;;;5037329;28;20075;-73
2023/06/16 03:52:31;;;;;;;2.67;2.05;;;22.60;40.00;;;;;;5037097;28;20065;-73
2023/06/16 03:54:57;;;;;;;2.28;1.77;;;22.60;40.10;;;;;;5055517;28;20547;-72
2023/06/16 03:57:22;;;;;;;2.40;1.90;;;22.50;40.10;;;;;;5037158;28;20029;-72
2023/06/16 03:59:49;;;;;;;3.53;2.17;;;22.50;40.10;;;;;;5037349;28;20036;-73
2023/06/16 04:02:16;;;;;;;2.55;2.05;;;22.50;40.20;;;;;;5053966;28;20087;-72
2023/06/16 04:04:46;;;;;;;2.05;1.60;;;22.50;40.30;;;;;;5038071;28;20033;-74
2023/06/16 04:07:13;;;;;;;2.83;1.90;;;22.40;40.20;;;;;;5053786;28;20033;-73
2023/06/16 04:09:40;;;;;;;2.38;1.77;;;22.40;40.30;;;;;;5053642;28;20041;-72
2023/06/16 04:12:06;;;;;;;2.10;1.80;;;22.40;40.30;;;;;;5053664;28;20036;-72
2023/06/16 04:14:34;;;;;;;2.22;1.60;;;22.40;40.30;;;;;;5053758;28;20120;-73
2023/06/16 04:17:00;;;;;;;2.28;1.83;;;22.30;40.40;;;;;;5037080;28;20035;-73
2023/06/16 04:19:26;;;;;;;2.03;1.80;;;22.30;40.40;;;;;;5053710;28;20048;-73
2023/06/16 04:21:53;;;;;;;2.55;1.88;;;22.20;40.40;;;;;;5053717;28;20095;-73
2023/06/16 04:24:21;;;;;;;2.70;1.85;;;22.20;40.50;;;;;;5021094;28;20032;-73
2023/06/16 04:26:49;;;;;;;2.25;1.83;;;22.20;40.50;;;;;;5053597;28;20040;-72
2023/06/16 04:29:15;;;;;;;2.78;1.88;;;22.20;40.50;;;;;;5053548;28;20037;-74
2023/06/16 04:31:43;;;;;;;2.40;1.80;;;22.10;40.60;;;;;;5037141;28;20029;-72
2023/06/16 04:34:10;;;;;;;2.30;1.83;;;22.10;40.60;;;;;;5036771;28;20036;-73
2023/06/16 04:36:44;;;;;;;2.13;1.70;;;22.10;40.60;;;;;;5037082;28;20038;-76
2023/06/16 04:39:22;;;;;;;;;;;22.00;40.60;;;;;;5039537;28;20133;-73
2023/06/16 04:41:48;;;;;;;1.60;1.50;;;22.00;40.50;;;;;;5070786;28;19913;-72
2023/06/16 04:44:14;;;;;;;2.47;1.85;;;21.90;40.60;;;;;;5053867;28;20454;-73
2023/06/16 04:46:41;;;;;;;2.03;1.58;;;21.90;40.70;;;;;;5036847;28;20040;-73
2023/06/16 04:49:09;;;;;;;3.53;1.70;;;21.90;40.90;;;;;;5052942;28;20068;-72
2023/06/16 04:51:35;;;;;;;2.97;2.10;;;21.90;41.00;;;;;;5053194;28;20389;-73
2023/06/16 04:54:00;;;;;;;2.67;1.83;;;21.90;41.00;;;;;;5019843;28;20029;-73
2023/06/16 04:56:26;;;;;;;2.40;1.77;;;21.80;41.10;;;;;;5036307;28;20029;-72
2023/06/16 04:58:52;;;;;;;2.03;1.70;;;21.80;41.20;;;;;;5054319;28;20045;-72
2023/06/16 05:01:18;;;;;;;2.70;1.90;;;21.80;41.20;;;;;;5036284;28;20033;-72
2023/06/16 05:03:44;;;;;;;2.38;1.90;;;21.80;41.30;;;;;;5053929;28;20029;-72
2023/06/16 05:06:10;;;;;;;2.78;1.98;;;21.70;41.20;;;;;;5035040;28;20035;-73
2023/06/16 05:08:36;;;;;;;2.22;1.77;;;21.80;41.30;;;;;;5052439;28;20040;-75
2023/06/16 05:11:02;;;;;;;2.20;1.80;;;21.70;41.30;;;;;;5052486;28;20174;-73
2023/06/16 05:13:30;;;;;;;2.65;1.80;;;21.70;41.30;;;;;;5052490;28;20021;-73
2023/06/16 05:15:56;;;;;;;2.15;1.80;;;21.70;41.40;;;;;;5035877;28;20382;-72
2023/06/16 05:18:22;;;;;;;3.10;2.20;;;21.70;41.50;;;;;;5052982;28;20060;-81
2023/06/16 05:20:47;;;;;;;2.80;2.00;;;21.70;41.50;;;;;;5019420;28;20470;-74
2023/06/16 05:23:13;;;;;;;3.15;2.15;;;21.60;41.50;;;;;;5019274;28;20040;-75
2023/06/16 05:25:39;;;;;;;2.38;1.95;;;21.60;41.50;;;;;;5019222;28;20029;-75
2023/06/16 05:28:07;;;;;;;2.90;1.95;;;21.60;41.60;;;;;;5019316;28;20037;-73
2023/06/16 05:30:33;;;;;;;2.72;1.83;;;21.60;41.60;;;;;;5052685;28;20037;-73
2023/06/16 05:32:59;;;;;;;2.40;1.88;;;21.60;41.60;;;;;;5051999;28;20090;-75
2023/06/16 05:35:26;;;;;;;2.55;2.05;;;21.60;41.70;;;;;;5019578;28;20033;-72
2023/06/16 05:37:52;;;;;;;2.22;1.65;;;21.60;41.70;;;;;;5051979;28;20025;-72
2023/06/16 05:40:17;;;;;;;3.22;2.10;;;21.50;41.70;;;;;;5051769;28;20043;-73
2023/06/16 05:42:43;;;;;;;3.03;2.05;;;21.60;41.70;;;;;;5035395;28;20037;-73
2023/06/16 05:45:10;;;;;;;2.45;1.80;;;21.60;41.80;;;;;;5036107;28;20048;-76
2023/06/16 05:47:36;;;;;;;4.72;2.20;;;21.60;41.80;;;;;;5035504;28;20482;-73
2023/06/16 05:50:02;;;;;;;3.33;1.77;;;21.50;41.80;;;;;;5051570;28;20056;-72
2023/06/16 05:52:30;;;;;;;3.42;1.85;;;21.50;41.80;;;;;;5035691;28;20120;-72
2023/06/16 05:54:57;;;;;;;2.17;1.75;;;21.50;41.80;;;;;;5035831;28;20025;-72
2023/06/16 05:57:32;;;;;;;2.75;2.20;;;21.50;41.90;;;;;;5052156;28;20025;-73
2023/06/16 05:59:58;;;;;;;2.90;2.00;;;21.50;41.90;;;;;;5052481;28;20530;-72
2023/06/16 06:02:24;;;;;;;2.65;1.90;;;21.50;41.90;;;;;;5035600;28;20124;-72
2023/06/16 06:04:50;;;;;;;2.85;1.90;;;21.50;42.50;;;;;;5035382;28;20029;-73
2023/06/16 06:07:16;;;;;;;2.53;1.98;;;21.60;42.00;;;;;;5053569;28;20121;-73
2023/06/16 06:09:42;;;;;;;2.75;1.88;;;21.50;41.90;;;;;;5018547;28;20137;-77
2023/06/16 06:12:09;;;;;;;2.17;1.83;;;21.50;41.90;;;;;;5051944;28;20030;-73
2023/06/16 06:14:36;;;;;;;2.50;1.90;;;21.60;42.00;;;;;;5018989;28;20029;-72
2023/06/16 06:17:03;;;;;;;2.70;2.10;;;21.60;42.00;;;;;;5055461;28;20044;-72
2023/06/16 06:19:29;;;;;;;2.80;1.88;;;21.50;41.90;;;;;;5039948;28;20122;-72
2023/06/16 06:21:57;;;;;;;2.85;1.90;;;21.60;42.00;;;;;;5056070;28;20172;-72
2023/06/16 06:24:22;;;;;;;2.42;1.80;;;21.60;42.00;;;;;;5055971;28;20127;-75
2023/06/16 06:26:49;;;;;;;2.42;1.98;;;21.50;41.90;;;;;;5055567;28;20079;-74
2023/06/16 06:29:17;;;;;;;2.17;1.45;;;21.60;42.00;;;;;;5055165;28;20044;-73
2023/06/16 06:31:43;;;;;;;2.75;1.95;;;21.60;42.00;;;;;;5039099;28;20039;-75
2023/06/16 06:34:09;;;;;;;2.22;1.85;;;21.60;42.00;;;;;;5055526;28;20088;-73
2023/06/16 06:36:39;;;;;;;2.53;1.88;;;21.60;42.00;;;;;;5056208;28;20036;-75
2023/06/16 06:39:05;;;;;;;2.53;1.98;;;21.60;42.00;;;;;;5039628;28;20132;-74
2023/06/16 06:41:31;;;;;;;3.17;2.03;;;21.60;42.10;;;;;;5038765;28;20037;-74
2023/06/16 06:44:05;;;;;;;2.80;1.88;;;21.60;42.00;;;;;;5040117;28;20489;-72
2023/06/16 06:46:47;;;;;;;2.25;1.70;;;21.60;42.00;;;;;;5041439;28;20032;-73
2023/06/16 06:49:13;;;;;;;2.38;1.83;;;21.60;42.10;;;;;;5054758;28;20148;-72
2023/06/16 06:51:40;;;;;;;2.70;1.90;;;21.60;42.10;;;;;;5055785;28;20543;-73
2023/06/16 06:54:07;;;;;;;2.40;1.70;;;21.70;42.10;;;;;;5056156;28;20029;-73
2023/06/16 06:56:33;;;;;;;3.72;2.10;;;21.60;42.10;;;;;;5055040;28;20040;-71
2023/06/16 06:58:59;;;;;;;2.33;1.70;;;21.60;42.10;;;;;;5056047;28;20045;-71
2023/06/16 07:01:24;;;;;;;2.30;2.00;;;21.70;42.20;;;;;;5056494;28;20121;-71
2023/06/16 07:03:50;;;;;;;2.85;2.17;;;21.70;42.20;;;;;;5055786;28;20468;-71
2023/06/16 07:06:16;;;;;;;2.42;1.92;;;21.70;42.30;;;;;;5055927;28;20485;-71
2023/06/16 07:08:41;;;;;;;2.67;1.95;;;21.70;42.30;;;;;;5054854;28;20051;-71
2023/06/16 07:11:07;;;;;;;3.33;2.25;;;21.70;42.70;;;;;;5055616;28;20450;-71
2023/06/16 07:13:33;;;;;;;2.00;1.60;;;21.70;42.30;;;;;;5054846;28;20082;-71
2023/06/16 07:15:59;;;;;;;2.55;2.13;;;21.80;42.40;;;;;;5054543;28;20500;-72
2023/06/16 07:18:24;;;;;;;2.38;1.80;;;21.80;42.40;;;;;;5037972;28;20036;-71
2023/06/16 07:20:50;;;;;;;2.47;1.98;;;21.80;42.40;;;;;;5055936;28;20115;-71
2023/06/16 07:23:16;;;;;;;3.47;1.92;;;21.80;42.40;;;;;;5038433;28;20425;-71
2023/06/16 07:25:42;;;;;;;4.15;2.20;;;21.90;42.40;;;;;;5038111;28;20037;-71
2023/06/16 07:28:07;;;;;;;2.70;1.75;;;21.90;42.30;;;;;;5053322;28;20036;-71
2023/06/16 07:30:33;;;;;;;2.45;1.83;;;21.90;42.30;;;;;;5056523;28;20103;-71
2023/06/16 07:32:59;;;;;;;2.70;1.90;;;22.00;42.30;;;;;;5055721;28;20029;-71
2023/06/16 07:35:25;;;;;;;3.10;1.85;;;22.00;42.20;;;;;;5055388;28;20104;-70
2023/06/16 07:37:51;;;;;;;2.70;1.73;;;22.10;42.20;;;;;;5054917;28;20037;-71
2023/06/16 07:40:17;;;;;;;2.33;1.88;;;22.10;42.10;;;;;;5055351;28;20025;-71
2023/06/16 07:42:46;;;;;;;2.35;1.80;;;22.20;42.10;;;;;;5055301;28;20503;-72
2023/06/16 07:45:12;;;;;;;2.70;1.90;;;22.30;42.00;;;;;;5054269;28;20025;-71
2023/06/16 07:47:40;;;;;;;2.08;1.70;;;22.30;42.00;;;;;;5054283;28;20139;-72
2023/06/16 07:50:07;;;;;;;2.47;1.98;;;22.40;41.90;;;;;;5054227;28;20451;-71
2023/06/16 07:52:32;;;;;;;2.30;1.88;;;22.50;41.90;;;;;;5055055;28;20079;-71
2023/06/16 07:54:58;;;;;;;2.13;1.75;;;22.50;41.80;;;;;;5056098;28;20466;-72
2023/06/16 07:57:24;;;;;;;2.05;1.80;;;22.60;41.80;;;;;;5055800;28;20104;-70
2023/06/16 07:59:49;;;;;;;2.42;1.88;;;22.60;41.60;;;;;;5037376;28;20116;-72
2023/06/16 08:02:15;;;;;;;2.10;1.70;;;22.70;41.60;;;;;;5055343;28;20389;-71
2023/06/16 08:04:41;;;;;;;2.65;1.92;;;22.80;41.50;;;;;;5055384;28;20045;-71
2023/06/16 08:07:07;;;;;;;2.40;1.92;;;22.90;41.50;;;;;;5037506;28;20029;-71
2023/06/16 08:09:32;;;;;;;2.80;1.88;;;22.90;41.40;;;;;;5055053;28;20037;-73
2023/06/16 08:11:58;;;;;;;2.13;1.83;;;23.00;41.30;;;;;;5054031;28;20474;-71
2023/06/16 08:14:23;;;;;;;2.28;1.75;;;23.10;41.30;;;;;;5055190;28;20075;-71
2023/06/16 08:16:50;;;;;;;2.65;1.70;;;23.20;41.20;;;;;;5055164;28;20047;-71
2023/06/16 08:19:15;;;;;;;2.78;2.00;;;23.30;41.20;;;;;;5036580;28;20040;-71
2023/06/16 08:21:41;;;;;;;3.17;2.10;;;23.30;41.10;;;;;;5055301;28;20116;-71
2023/06/16 08:24:07;;;;;;;2.60;1.83;;;23.40;41.10;;;;;;5054726;28;20075;-72
2023/06/16 08:26:32;;;;;;;2.85;1.92;;;23.50;41.00;;;;;;5053269;28;20439;-74
2023/06/16 08:28:59;;;;;;;2.45;1.73;;;23.60;41.00;;;;;;5053509;28;20041;-73
2023/06/16 08:31:27;;;;;;;2.05;1.80;;;23.60;40.90;;;;;;5053889;28;20041;-72
2023/06/16 08:33:54;;;;;;;2.78;1.75;;;23.80;40.90;;;;;;5054104;28;20029;-73
2023/06/16 08:36:22;;;;;;;1.98;1.75;;;23.80;40.90;;;;;;5053844;28;20025;-72
2023/06/16 08:38:48;;;;;;;1.83;1.70;;;24.00;40.90;;;;;;5054356;28;20080;-73
2023/06/16 08:41:16;;;;;;;2.33;1.92;;;24.00;40.80;;;;;;5054087;28;20454;-73
2023/06/16 08:43:43;;;;;;;1.90;1.73;;;24.10;40.80;;;;;;5052896;28;20025;-73
2023/06/16 08:46:09;;;;;;;3.03;1.83;;;24.20;40.90;;;;;;5054124;28;20528;-72
2023/06/16 08:48:38;;;;;;;2.28;1.88;;;24.30;40.90;;;;;;5053505;28;20072;-73
2023/06/16 08:51:05;;;;;;;2.40;1.73;;;24.40;41.50;;;;;;5054567;28;20049;-73
2023/06/16 08:53:33;;;;;;;2.05;1.60;;;24.50;40.80;;;;;;5053129;28;20488;-73
2023/06/16 08:56:04;;;;;;;2.25;1.98;;;24.60;40.90;;;;;;5036844;28;20452;-73
2023/06/16 08:58:31;;;;;;;1.90;1.70;;;24.60;40.90;;;;;;5036817;28;20029;-73
2023/06/16 09:00:59;;;;;;;2.70;2.05;;;24.80;40.90;;;;;;5036520;28;20036;-73
2023/06/16 09:03:26;;;;;;;2.47;1.88;;;24.80;40.90;;;;;;5054767;28;20040;-73
2023/06/16 09:05:52;;;;;;;1.95;1.65;;;24.90;40.90;;;;;;5053428;28;20462;-74
2023/06/16 09:08:20;;;;;;;2.10;1.60;;;25.10;41.10;;;;;;5036547;28;20462;-73
2023/06/16 09:10:54;;;;;;;2.00;1.80;;;25.20;41.10;;;;;;5053552;28;20028;-76
2023/06/16 09:13:21;;;;;;;2.15;1.77;;;25.30;41.10;;;;;;5054304;28;20029;-75
2023/06/16 09:15:48;;;;;;;1.85;1.63;;;25.30;41.00;;;;;;5053326;28;20569;-75
2023/06/16 09:18:15;;;;;;;1.80;1.60;;;25.40;41.10;;;;;;5035792;28;20485;-74
2023/06/16 09:20:41;;;;;;;2.15;1.70;;;25.60;41.10;;;;;;5052378;28;20382;-74
2023/06/16 09:23:08;;;;;;;2.13;1.80;;;25.70;41.20;;;;;;5052154;28;20036;-74
2023/06/16 09:25:35;;;;;;;2.17;1.65;;;25.70;41.20;;;;;;5054076;28;20028;-73
2023/06/16 09:28:09;;;;;;;2.35;1.85;;;25.80;41.20;;;;;;5052796;28;20040;-73
2023/06/16 09:30:36;;;;;;;2.92;1.77;;;25.90;41.20;;;;;;5053754;28;20036;-74
2023/06/16 09:33:02;;;;;;;2.35;1.85;;;26.00;41.10;;;;;;5035899;28;20377;-73
2023/06/16 09:35:30;;;;;;;2.83;1.80;;;26.10;41.20;;;;;;5053667;28;20517;-73
2023/06/16 09:37:59;;;;;;;2.78;1.98;;;26.20;41.20;;;;;;5051948;28;20104;-73
2023/06/16 09:40:30;;;;;;;2.22;1.60;;;26.30;41.30;;;;;;5052413;28;20036;-72
2023/06/16 09:43:01;;;;;;;2.08;1.80;;;26.40;41.30;;;;;;5051846;28;20071;-73
2023/06/16 09:45:30;;;;;;;1.75;1.60;;;26.50;41.30;;;;;;5052397;28;20116;-72
2023/06/16 09:47:57;;;;;;;2.63;1.67;;;26.60;41.30;;;;;;5053203;28;20028;-73
2023/06/16 09:50:25;;;;;;;2.00;1.80;;;26.70;41.30;;;;;;5034767;28;20053;-73
2023/06/16 09:52:53;;;;;;;2.65;1.80;;;26.80;41.30;;;;;;5051660;28;20036;-73
2023/06/16 09:55:19;;;;;;;3.15;1.73;;;26.90;41.40;;;;;;5035817;28;20082;-70
2023/06/16 09:57:46;;;;;;;1.95;1.58;;;27.00;41.40;;;;;;5051622;28;20446;-71
2023/06/16 10:00:17;;;;;;;1.95;1.67;;;27.10;41.40;;;;;;5053108;28;20060;-71
2023/06/16 10:02:45;;;;;;;1.88;1.60;;;27.10;41.30;;;;;;5052408;28;20100;-71
2023/06/16 10:05:15;;;;;;;1.60;1.50;;;27.30;41.30;;;;;;5035443;28;20071;-71
2023/06/16 10:07:43;;;;;;;2.20;1.85;;;27.40;41.30;;;;;;5052555;28;20041;-71
2023/06/16 10:10:11;;;;;;;1.55;1.40;;;27.40;41.30;;;;;;5053007;28;20032;-71
2023/06/16 10:12:39;;;;;;;2.13;1.65;;;27.60;41.40;;;;;;5051559;28;20454;-70
2023/06/16 10:15:10;;;;;;;2.20;1.77;;;27.60;42.00;;;;;;5053172;28;20036;-73
2023/06/16 10:17:38;;;;;;;2.05;1.67;;;27.70;41.40;;;;;;5052725;28;20104;-72
2023/06/16 10:20:13;;;;;;;2.60;1.65;;;27.90;41.40;;;;;;5052889;28;20115;-73
2023/06/16 10:22:39;;;;;;;2.30;1.65;;;27.90;41.30;;;;;;5051677;28;20501;-73
2023/06/16 10:25:06;;;;;;;2.22;1.75;;;28.00;41.30;;;;;;5052173;28;20029;-73
2023/06/16 10:27:33;;;;;;;2.20;1.70;;;28.10;41.30;;;;;;5052120;28;20044;-73
2023/06/16 10:30:01;;;;;;;2.10;1.70;;;28.20;41.30;;;;;;5051716;28;20183;-73
2023/06/16 10:32:27;;;;;;;2.08;1.70;;;28.30;41.30;;;;;;5051897;28;20058;-74
2023/06/16 10:34:56;;;;;;;2.15;1.70;;;28.30;41.30;;;;;;5053293;28;20029;-73
2023/06/16 10:37:29;;;;;;;2.28;1.83;;;28.40;41.40;;;;;;5053003;28;20037;-74
2023/06/16 10:39:56;;;;;;;1.58;1.48;;;28.50;41.50;;;;;;5052724;28;20044;-73
2023/06/16 10:42:22;;;;;;;2.05;1.70;;;28.60;41.50;;;;;;5035027;28;20359;-73
2023/06/16 10:44:50;;;;;;;1.58;1.48;;;28.70;41.50;;;;;;5052656;28;20083;-73
2023/06/16 10:47:16;;;;;;;2.05;1.75;;;28.80;41.50;;;;;;5052619;28;20033;-74
2023/06/16 10:49:55;;;;;;;2.03;1.80;;;28.90;41.50;;;;;;5052240;28;20547;-72
2023/06/16 10:52:49;;;;;;;1.85;1.60;;;29.00;41.60;;;;;;5051877;28;20037;-75
2023/06/16 10:55:25;;;;;;;2.40;1.60;;;29.10;41.60;;;;;;5052148;28;20040;-73
2023/06/16 10:58:20;;;;;;;1.73;1.50;;;29.20;41.50;;;;;;5052640;28;20045;-74
2023/06/16 11:01:13;;;;;;;2.13;1.60;;;29.20;41.50;;;;;;5052401;28;20037;-74
2023/06/16 11:03:44;;;;;;;2.05;1.77;;;29.30;41.50;;;;;;5037811;28;20086;-73
2023/06/16 11:06:10;;;;;;;2.05;1.85;;;29.40;41.50;;;;;;5056485;28;20033;-73
2023/06/16 11:08:57;;;;;;;1.88;1.63;;;29.40;41.50;;;;;;5054675;28;20043;-74
2023/06/16 11:11:33;;;;;;;2.53;1.77;;;29.40;41.40;;;;;;5056890;28;20111;-74
2023/06/16 11:14:00;;;;;;;2.25;1.80;;;29.50;41.30;;;;;;5054774;28;20497;-77
2023/06/16 11:16:27;;;;;;;2.55;2.10;;;29.60;41.30;;;;;;5054968;28;20039;-73
2023/06/16 11:18:54;;;;;;;2.22;1.65;;;29.60;41.40;;;;;;5055113;28;20123;-74
2023/06/16 11:21:23;;;;;;;2.67;2.00;;;29.60;41.40;;;;;;5038047;28;20056;-74
2023/06/16 11:23:49;;;;;;;1.95;1.70;;;29.70;41.50;;;;;;5054788;28;20039;-74
2023/06/16 11:26:17;;;;;;;2.03;1.70;;;29.70;41.60;;;;;;5054506;28;20120;-74
2023/06/16 11:28:43;;;;;;;1.80;1.60;;;29.70;41.70;;;;;;5021894;28;20044;-75
2023/06/16 11:31:13;;;;;;;2.95;2.08;;;29.70;41.70;;;;;;5056058;28;20037;-75
2023/06/16 11:33:39;;;;;;;2.50;1.75;;;29.70;41.90;;;;;;5054712;28;20123;-74
2023/06/16 11:36:20;;;;;;;2.03;1.60;;;29.80;42.00;;;;;;5055433;28;20486;-74
2023/06/16 11:38:51;;;;;;;1.80;1.60;;;29.80;42.10;;;;;;5055314;28;20041;-75
2023/06/16 11:41:27;;;;;;;2.38;1.90;;;29.80;42.10;;;;;;5054708;28;20116;-74
2023/06/16 11:43:54;;;;;;;2.33;1.92;;;29.80;42.10;;;;;;5055829;28;20055;-74
2023/06/16 11:46:23;;;;;;;2.20;2.00;;;29.80;42.10;;;;;;5037479;28;20543;-74
2023/06/16 11:48:51;;;;;;;1.90;1.70;;;29.90;42.90;;;;;;5037481;28;20098;-75
2023/06/16 11:51:17;;;;;;;2.20;2.00;;;29.90;42.20;;;;;;5054779;28;20053;-74
2023/06/16 11:53:45;;;;;;;2.95;2.05;;;30.00;42.10;;;;;;5054291;28;20390;-73
2023/06/16 11:56:15;;;;;;;2.63;2.10;;;30.00;42.00;;;;;;5053817;28;20053;-74
2023/06/16 11:58:45;;;;;;;2.53;1.83;;;30.00;41.90;;;;;;5038095;28;20033;-75
2023/06/16 12:01:18;;;;;;;3.00;2.40;;;30.00;41.90;;;;;;5055206;28;20056;-76
2023/06/16 12:03:46;;;;;;;2.28;1.80;;;30.10;41.80;;;;;;5037494;28;20477;-75
2023/06/16 12:06:12;;;;;;;2.50;2.05;;;30.10;41.60;;;;;;5053796;28;20235;-75
2023/06/16 12:08:46;;;;;;;2.30;2.00;;;30.10;41.50;;;;;;5053697;28;20474;-74
2023/06/16 12:11:46;;;;;;;2.22;1.90;;;30.10;41.50;;;;;;5053682;28;20029;-74
2023/06/16 12:14:20;;;;;;;2.95;1.95;;;30.10;41.40;;;;;;5036758;28;20460;-75
2023/06/16 12:16:50;;;;;;;2.58;2.03;;;30.20;41.20;;;;;;5054990;28;20108;-74
2023/06/16 12:19:20;;;;;;;2.80;1.98;;;30.20;41.10;;;;;;5037191;28;20064;-74
2023/06/16 12:22:00;;;;;;;2.25;1.65;;;30.20;41.00;;;;;;5037564;28;20367;-74
2023/06/16 12:24:27;;;;;;;2.17;1.95;;;30.20;40.90;;;;;;5053506;28;20021;-75
2023/06/16 12:26:53;;;;;;;2.55;1.88;;;30.20;40.80;;;;;;5036938;28;20056;-73
2023/06/16 12:29:20;;;;;;;3.50;2.05;;;30.20;40.80;;;;;;5053452;28;20037;-74
2023/06/16 12:32:12;;;;;;;2.47;2.00;;;30.20;40.70;;;;;;5054383;28;20059;-76
2023/06/16 12:34:38;;;;;;;1.98;1.65;;;30.20;40.50;;;;;;5055535;28;20472;-74
2023/06/16 12:37:07;;;;;;;2.33;1.90;;;30.30;40.10;;;;;;5055362;28;20029;-74
2023/06/16 12:39:34;;;;;;;2.88;2.05;;;30.30;39.90;;;;;;5054294;28;20489;-74
2023/06/16 12:42:05;;;;;;;2.50;2.17;;;30.30;39.80;;;;;;5054551;28;20104;-74
2023/06/16 12:45:02;;;;;;;3.00;1.95;;;30.30;39.70;;;;;;5053049;28;20377;-75
2023/06/16 12:47:32;;;;;;;2.53;1.90;;;30.40;39.90;;;;;;5036393;28;20371;-73
2023/06/16 12:50:00;;;;;;;3.17;2.03;;;30.40;39.80;;;;;;5053968;28;20137;-73
2023/06/16 12:52:28;;;;;;;3.15;2.00;;;30.40;39.70;;;;;;5054051;28;20419;-72
2023/06/16 12:54:56;;;;;;;2.42;2.03;;;30.40;39.60;;;;;;5052727;28;20100;-74